Time;durP1;ratioP1;P1;durP2;ratioP2;P2;SDS_P1;SDS_P2;PMS_P1;PMS_P2;Temp;Humidity;BMP_temperature;BMP_pressure;BME280_temperature;BME280_humidity;BME280_pressure;Samples;Min_cycle;Max_cycle;Signal;HPM_P1;HPM_P2
2021/09/16 00:01:12;;;;;;;16.17;10.10;;;;;;;20.25;54.31;98976.00;5106828;28;20059;-91
2021/09/16 00:03:38;;;;;;;15.82;10.18;;;;;;;20.22;54.22;98983.44;5109434;28;20019;-93
2021/09/16 00:06:03;;;;;;;18.27;10.30;;;;;;;20.14;54.47;98986.63;5106729;28;20097;-94
2021/09/16 00:08:31;;;;;;;15.65;10.00;;;;;;;19.97;55.11;98982.25;5104079;28;20058;-92
2021/09/16 00:10:56;;;;;;;13.70;9.55;;;;;;;19.98;55.48;99004.75;5110506;28;20131;-93
2021/09/16 00:13:23;;;;;;;14.75;9.82;;;;;;;20.04;54.66;98996.28;5108664;28;20473;-93
2021/09/16 00:15:49;;;;;;;15.13;10.15;;;;;;;20.06;54.61;98991.63;5107001;28;20125;-93
2021/09/16 00:18:14;;;;;;;14.68;9.90;;;;;;;20.08;55.05;98997.78;5112753;28;20138;-92
2021/09/16 00:20:40;;;;;;;14.63;9.63;;;;;;;20.02;55.14;98992.81;5110607;28;20044;-92
2021/09/16 00:23:09;;;;;;;13.43;10.30;;;;;;;20.00;55.27;98994.72;5109580;28;20430;-92
2021/09/16 00:25:36;;;;;;;19.30;10.05;;;;;;;19.92;55.38;98994.31;5105720;28;20093;-93
2021/09/16 00:28:02;;;;;;;18.40;10.05;;;;;;;19.89;55.41;98992.69;5104933;28;20035;-94
2021/09/16 00:30:31;;;;;;;13.88;9.50;;;;;;;19.95;55.77;99018.41;5109061;28;20032;-92
2021/09/16 00:32:57;;;;;;;14.75;10.05;;;;;;;19.87;55.94;99008.97;5105148;28;20065;-91
2021/09/16 00:35:23;;;;;;;13.43;9.57;;;;;;;19.85;55.56;99002.78;5110331;28;20039;-93
2021/09/16 00:37:50;;;;;;;17.88;10.07;;;;;;;19.88;55.68;99008.00;5108262;28;20027;-93
2021/09/16 00:40:16;;;;;;;14.30;10.00;;;;;;;19.83;55.69;99004.72;5109201;28;20497;-91
2021/09/16 00:42:46;;;;;;;17.42;10.30;;;;;;;20.03;54.73;99030.47;5100967;28;20040;-92
2021/09/16 00:45:13;;;;;;;17.15;10.23;;;;;;;20.21;54.06;99025.78;5107939;28;20493;-92
2021/09/16 00:47:43;;;;;;;14.10;10.10;;;;;;;20.27;53.61;99008.31;5101460;28;20040;-91
2021/09/16 00:50:10;;;;;;;15.85;10.40;;;;;;;20.33;53.34;99024.13;5108930;28;20044;-95
2021/09/16 00:52:39;;;;;;;15.88;9.85;;;;;;;20.40;52.91;99013.81;5104588;28;20043;-94
2021/09/16 00:55:07;;;;;;;17.65;9.60;;;;;;;20.35;53.53;99013.25;5105005;28;20655;-90
2021/09/16 00:57:33;;;;;;;16.13;10.25;;;;;;;20.32;53.49;99006.22;5108478;28;20135;-93
2021/09/16 01:00:04;;;;;;;18.20;9.70;;;;;;;20.39;52.93;99012.94;5105467;28;20138;-93
2021/09/16 01:02:31;;;;;;;20.33;10.95;;;;;;;20.44;52.62;99026.16;5105363;28;20501;-95
2021/09/16 01:04:57;;;;;;;15.32;10.30;;;;;;;20.37;52.66;99020.28;5105256;28;20054;-94
2021/09/16 01:07:23;;;;;;;13.70;10.07;;;;;;;20.42;53.08;99019.97;5109687;28;20477;-92
2021/09/16 01:09:49;;;;;;;18.48;9.65;;;;;;;20.36;53.18;99018.53;5107181;28;20032;-93
2021/09/16 01:12:15;;;;;;;14.10;10.25;;;;;;;20.35;53.75;99015.94;5107170;28;20366;-93
2021/09/16 01:14:41;;;;;;;16.90;10.85;;;;;;;20.39;53.46;99028.28;5106804;28;20112;-93
2021/09/16 01:17:08;;;;;;;16.98;10.93;;;;;;;20.36;54.07;99028.47;5108443;28;20040;-91
2021/09/16 01:19:34;;;;;;;14.38;10.13;;;;;;;20.21;54.14;99006.88;5103343;28;20493;-94
2021/09/16 01:22:00;;;;;;;18.35;10.85;;;;;;;20.17;54.66;99013.44;5111915;28;20038;-92
2021/09/16 01:24:27;;;;;;;14.98;10.48;;;;;;;20.15;54.39;99031.56;5105328;28;20117;-93
2021/09/16 01:26:53;;;;;;;17.73;10.23;;;;;;;20.00;55.03;99027.13;5105706;28;20067;-94
2021/09/16 01:29:19;;;;;;;15.80;10.10;;;;;;;19.94;55.58;99028.34;5109387;28;20047;-93
2021/09/16 01:31:47;;;;;;;14.00;10.25;;;;;;;19.89;55.67;99023.25;5103613;28;20135;-94
2021/09/16 01:34:17;;;;;;;14.90;10.77;;;;;;;19.88;55.87;99032.28;5106830;28;20047;-94
2021/09/16 01:36:48;;;;;;;13.00;9.88;;;;;;;19.90;56.03;99040.28;5105863;28;20043;-90
2021/09/16 01:39:18;;;;;;;15.40;9.77;;;;;;;19.81;56.68;99030.06;5106202;28;20047;-93
2021/09/16 01:41:45;;;;;;;18.55;10.30;;;;;;;19.85;56.34;99037.03;5105461;28;20055;-92
2021/09/16 01:44:12;;;;;;;15.48;9.77;;;;;;;19.79;56.93;99019.34;5105486;28;20050;-92
2021/09/16 01:46:37;;;;;;;26.02;11.70;;;;;;;19.79;56.98;99024.75;5104503;28;20044;-92
2021/09/16 01:49:04;;;;;;;18.17;10.57;;;;;;;19.67;57.04;99025.47;5104871;28;20508;-92
2021/09/16 01:51:32;;;;;;;17.50;10.40;;;;;;;19.68;57.01;99035.31;5106504;28;20101;-93
2021/09/16 01:53:58;;;;;;;17.05;10.10;;;;;;;19.63;57.49;99049.06;5103942;28;20040;-92
2021/09/16 01:56:24;;;;;;;16.52;10.18;;;;;;;19.53;57.04;99025.44;5100429;28;20079;-92
2021/09/16 01:58:51;;;;;;;18.20;10.32;;;;;;;19.58;57.63;99042.19;5103239;28;20097;-93
2021/09/16 02:01:17;;;;;;;16.00;10.00;;;;;;;19.45;57.72;99040.25;5102074;28;20596;-92
2021/09/16 02:03:43;;;;;;;14.45;9.88;;;;;;;19.48;58.50;99048.16;5107680;28;20123;-94
2021/09/16 02:06:09;;;;;;;14.77;10.85;;;;;;;19.42;58.54;99035.03;5104628;28;20484;-92
2021/09/16 02:08:35;;;;;;;15.82;10.60;;;;;;;19.52;58.56;99056.03;5106759;28;20046;-92
2021/09/16 02:11:01;;;;;;;18.50;11.10;;;;;;;19.48;58.73;99029.28;5103721;28;20036;-93
2021/09/16 02:13:28;;;;;;;16.52;10.60;;;;;;;19.53;58.65;99010.09;5103728;28;20040;-93
2021/09/16 02:15:58;;;;;;;15.90;11.00;;;;;;;19.51;57.80;99001.25;5102113;28;20392;-93
2021/09/16 02:18:25;;;;;;;16.70;10.40;;;;;;;19.64;57.88;99022.94;5106492;28;20044;-91
2021/09/16 02:20:51;;;;;;;18.15;10.90;;;;;;;19.77;57.53;99031.22;5104806;28;20039;-94
2021/09/16 02:23:17;;;;;;;18.65;10.57;;;;;;;19.66;57.30;99002.16;5107495;28;20054;-93
2021/09/16 02:25:42;;;;;;;16.42;10.85;;;;;;;19.69;57.55;99008.28;5104660;28;20542;-93
2021/09/16 02:28:08;;;;;;;17.15;11.23;;;;;;;19.74;57.42;99013.38;5105895;28;20134;-92
2021/09/16 02:30:34;;;;;;;16.02;10.57;;;;;;;19.69;57.43;98996.56;5106408;28;20044;-92
2021/09/16 02:33:04;;;;;;;15.75;10.65;;;;;;;19.72;57.14;99003.66;5108204;28;20485;-94
2021/09/16 02:35:30;;;;;;;18.00;10.40;;;;;;;19.73;56.89;99008.06;5103558;28;20040;-90
2021/09/16 02:37:56;;;;;;;16.60;10.60;;;;;;;19.75;55.61;99015.09;5103532;28;20562;-92
2021/09/16 02:40:23;;;;;;;15.60;9.98;;;;;;;19.77;55.90;99004.22;5103452;28;20059;-94
2021/09/16 02:42:49;;;;;;;17.73;9.70;;;;;;;19.80;55.63;98999.53;5107964;28;20048;-93
2021/09/16 02:45:15;;;;;;;15.23;10.35;;;;;;;19.88;55.78;99004.44;5103215;28;20043;-95
2021/09/16 02:47:41;;;;;;;15.80;9.98;;;;;;;19.80;55.63;98994.13;5100522;28;20071;-91
2021/09/16 02:50:10;;;;;;;16.15;9.85;;;;;;;19.98;54.82;99016.41;5105525;28;20404;-94
2021/09/16 02:52:36;;;;;;;16.83;9.73;;;;;;;19.93;55.04;99015.84;5107425;28;20048;-91
2021/09/16 02:55:02;;;;;;;16.35;10.65;;;;;;;19.93;55.52;99004.16;5102962;28;20123;-92
2021/09/16 02:57:28;;;;;;;17.60;10.50;;;;;;;19.94;56.00;99005.91;5104681;28;20182;-92
2021/09/16 02:59:56;;;;;;;14.38;10.05;;;;;;;19.92;56.32;99018.63;5109775;28;20106;-93
2021/09/16 03:02:22;;;;;;;;;;;;;;;19.88;56.12;99024.19;5109064;28;20048;-92
2021/09/16 03:04:48;;;;;;;15.23;9.55;;;;;;;19.86;56.24;99004.53;5107855;28;19916;-95
2021/09/16 03:07:15;;;;;;;15.77;9.30;;;;;;;19.79;56.12;98996.91;5109695;28;20047;-93
2021/09/16 03:09:43;;;;;;;15.60;9.63;;;;;;;19.64;56.33;98986.03;5108389;28;20515;-91
2021/09/16 03:12:09;;;;;;;16.25;10.05;;;;;;;19.58;56.89;98999.03;5106706;28;20058;-91
2021/09/16 03:14:36;;;;;;;15.48;10.52;;;;;;;19.53;57.82;99009.25;5107328;28;20072;-92
2021/09/16 03:17:02;;;;;;;13.85;9.75;;;;;;;19.33;57.61;99003.22;5106467;28;20493;-93
2021/09/16 03:19:29;;;;;;;17.02;9.98;;;;;;;19.35;57.77;99016.63;5106605;28;20046;-94
2021/09/16 03:21:54;;;;;;;14.95;10.10;;;;;;;19.32;57.64;99008.69;5107514;28;21188;-94
2021/09/16 03:24:25;;;;;;;12.85;9.45;;;;;;;19.21;56.98;99012.88;5108012;28;20046;-91
2021/09/16 03:26:51;;;;;;;17.65;10.70;;;;;;;19.14;57.49;99016.03;5110152;28;20516;-92
2021/09/16 03:29:16;;;;;;;18.15;10.35;;;;;;;19.06;57.70;99021.84;5109371;28;20036;-94
2021/09/16 03:31:42;;;;;;;16.02;10.32;;;;;;;18.87;58.23;99014.00;5108934;28;20136;-94
2021/09/16 03:34:08;;;;;;;17.90;10.15;;;;;;;18.87;57.74;99011.28;5109432;28;20054;-93
2021/09/16 03:36:34;;;;;;;16.10;9.63;;;;;;;18.91;57.83;99014.66;5110101;28;20119;-91
2021/09/16 03:39:00;;;;;;;15.38;10.05;;;;;;;18.86;57.71;99012.22;5111476;28;20043;-93
2021/09/16 03:41:27;;;;;;;15.75;9.80;;;;;;;18.92;57.47;99019.09;5106340;28;20044;-93
2021/09/16 03:43:53;;;;;;;14.10;9.30;;;;;;;18.89;57.43;99001.28;5107979;28;20123;-92
2021/09/16 03:46:19;;;;;;;14.70;9.27;;;;;;;18.95;57.60;99013.53;5106518;28;20070;-92
2021/09/16 03:48:45;;;;;;;18.13;9.68;;;;;;;18.92;57.69;98995.72;5108148;28;20040;-93
2021/09/16 03:51:11;;;;;;;15.82;9.93;;;;;;;18.98;57.60;98995.38;5104343;28;20531;-93
2021/09/16 03:53:37;;;;;;;16.13;10.07;;;;;;;18.92;57.82;99005.63;5109528;28;20060;-93
2021/09/16 03:56:04;;;;;;;13.88;9.13;;;;;;;18.87;58.13;99009.47;5107164;28;20078;-93
2021/09/16 03:58:31;;;;;;;15.10;10.02;;;;;;;18.94;57.90;98993.81;5106696;28;20472;-92
2021/09/16 04:00:58;;;;;;;14.70;9.73;;;;;;;18.95;57.98;98955.09;5104553;28;20063;-92
2021/09/16 04:03:26;;;;;;;15.23;9.77;;;;;;;18.83;57.40;98953.16;5107260;28;20059;-93
2021/09/16 04:05:51;;;;;;;14.38;10.02;;;;;;;18.90;57.54;98975.22;5111528;28;20523;-91
2021/09/16 04:08:17;;;;;;;17.00;9.75;;;;;;;18.84;57.70;98976.41;5110790;28;20040;-92
2021/09/16 04:10:43;;;;;;;14.35;9.82;;;;;;;18.84;57.81;98990.75;5108125;28;20434;-93
2021/09/16 04:13:09;;;;;;;13.48;9.20;;;;;;;18.81;58.17;98999.03;5113631;28;20044;-93
2021/09/16 04:15:36;;;;;;;14.85;9.77;;;;;;;18.81;58.47;98995.47;5107912;28;20181;-90
2021/09/16 04:18:02;;;;;;;13.02;9.90;;;;;;;18.74;58.42;98985.97;5106843;28;20113;-91
2021/09/16 04:20:28;;;;;;;14.90;9.32;;;;;;;18.80;58.31;98999.09;5106639;28;20138;-92
2021/09/16 04:22:54;;;;;;;14.77;9.80;;;;;;;18.82;57.95;98994.50;5110090;28;20040;-93
2021/09/16 04:25:19;;;;;;;14.43;9.48;;;;;;;18.88;58.27;99005.78;5106613;28;20130;-94
2021/09/16 04:27:45;;;;;;;14.05;9.20;;;;;;;18.90;57.94;98986.00;5109537;28;20039;-93
2021/09/16 04:30:12;;;;;;;17.02;9.95;;;;;;;18.96;57.43;98986.50;5106437;28;20090;-94
2021/09/16 04:32:39;;;;;;;15.52;9.80;;;;;;;19.01;56.86;98980.84;5110305;28;20437;-92
2021/09/16 04:35:06;;;;;;;13.93;9.38;;;;;;;19.06;57.15;98978.72;5106833;28;20035;-95
2021/09/16 04:37:32;;;;;;;16.35;9.35;;;;;;;19.07;57.35;98958.91;5111172;28;20577;-92
2021/09/16 04:39:58;;;;;;;15.75;10.48;;;;;;;19.06;57.21;98952.69;5109309;28;20036;-91
2021/09/16 04:42:24;;;;;;;14.02;9.35;;;;;;;19.16;57.27;98965.59;5104800;28;20556;-93
2021/09/16 04:44:49;;;;;;;16.10;9.45;;;;;;;19.09;57.77;98965.97;5107628;28;20036;-92
2021/09/16 04:47:15;;;;;;;13.48;9.13;;;;;;;19.00;57.93;98960.25;5108156;28;20040;-95
2021/09/16 04:49:43;;;;;;;14.52;9.60;;;;;;;19.13;58.46;98998.09;5108785;28;20139;-94
2021/09/16 04:52:09;;;;;;;14.30;9.73;;;;;;;19.07;56.35;98967.88;5114915;28;20071;-93
2021/09/16 04:54:34;;;;;;;15.82;10.68;;;;;;;19.24;58.32;98995.69;5106774;28;20040;-93
2021/09/16 04:57:00;;;;;;;15.93;10.05;;;;;;;19.10;57.91;98980.28;5111076;28;20035;-94
2021/09/16 04:59:26;;;;;;;19.48;10.38;;;;;;;19.05;58.56;98980.56;5104465;28;20058;-94
2021/09/16 05:01:52;;;;;;;17.20;11.18;;;;;;;19.18;59.28;98998.72;5106679;28;20043;-95
2021/09/16 05:04:18;;;;;;;21.92;11.40;;;;;;;19.00;59.56;98985.38;5109724;28;20135;-93
2021/09/16 05:06:45;;;;;;;17.35;11.27;;;;;;;18.93;60.52;98986.66;5110264;28;20032;-93
2021/09/16 05:09:11;;;;;;;20.15;11.40;;;;;;;18.97;60.56;98998.13;5108601;28;20071;-95
2021/09/16 05:14:38;;;;;;;20.30;11.98;;;;;;;18.86;61.61;98987.97;5092448;27;20386;-92
2021/09/16 05:17:04;;;;;;;17.17;11.02;;;;;;;18.88;61.35;98977.97;5091891;28;20040;-93
2021/09/16 05:19:30;;;;;;;20.27;11.80;;;;;;;18.83;61.52;98958.53;5091503;28;20036;-91
2021/09/16 05:21:56;;;;;;;20.70;12.25;;;;;;;18.81;61.80;98960.44;5090611;28;20032;-92
2021/09/16 05:24:22;;;;;;;22.10;12.07;;;;;;;18.73;61.95;98981.53;5091698;28;20559;-91
2021/09/16 05:26:49;;;;;;;19.00;11.90;;;;;;;18.72;61.67;98974.41;5092555;28;20078;-93
2021/09/16 05:29:15;;;;;;;20.15;11.75;;;;;;;18.84;61.16;98985.38;5093585;28;20394;-92
2021/09/16 05:31:44;;;;;;;20.35;11.23;;;;;;;18.81;61.37;98976.63;5092937;28;20036;-94
2021/09/16 05:34:10;;;;;;;17.40;11.35;;;;;;;18.84;60.93;98979.13;5091636;28;20489;-93
2021/09/16 05:36:36;;;;;;;15.73;10.43;;;;;;;18.91;60.23;98996.69;5093365;28;20043;-94
2021/09/16 05:39:03;;;;;;;15.95;11.05;;;;;;;19.09;59.87;99006.38;5092824;28;20040;-94
2021/09/16 05:41:30;;;;;;;18.25;10.57;;;;;;;19.20;59.56;99000.38;5093019;28;20050;-93
2021/09/16 05:43:56;;;;;;;15.48;10.57;;;;;;;19.23;58.74;98988.53;5093212;28;20033;-94
2021/09/16 05:46:22;;;;;;;15.95;10.65;;;;;;;19.34;59.30;98986.06;5091842;28;20110;-93
2021/09/16 05:48:50;;;;;;;16.90;10.60;;;;;;;19.42;59.30;98999.97;5092641;28;20045;-96
2021/09/16 05:51:16;;;;;;;19.80;10.93;;;;;;;19.43;59.43;98985.53;5092548;28;20032;-94
2021/09/16 05:53:42;;;;;;;14.95;11.57;;;;;;;19.54;58.10;98984.88;5091968;28;20469;-95
2021/09/16 05:56:08;;;;;;;20.50;11.15;;;;;;;19.66;58.55;99003.00;5090896;28;20068;-95
2021/09/16 05:58:34;;;;;;;17.35;10.18;;;;;;;19.73;58.01;99008.94;5092522;28;20483;-93
2021/09/16 06:01:00;;;;;;;16.77;10.52;;;;;;;19.94;56.46;99006.75;5091799;28;20063;-96
2021/09/16 06:03:26;;;;;;;17.35;10.80;;;;;;;20.07;55.88;99007.72;5092991;28;20032;-94
2021/09/16 06:05:53;;;;;;;16.52;10.35;;;;;;;20.26;55.75;99018.25;5092750;28;20048;-96
2021/09/16 06:08:19;;;;;;;17.77;10.57;;;;;;;20.35;56.44;99030.31;5092501;28;20048;-93
2021/09/16 06:10:45;;;;;;;20.27;10.43;;;;;;;20.40;56.12;99027.31;5092109;28;20071;-92
2021/09/16 06:13:11;;;;;;;16.02;10.07;;;;;;;20.48;56.39;99025.84;5092504;28;20049;-93
2021/09/16 06:15:38;;;;;;;16.73;10.68;;;;;;;20.61;55.85;99030.53;5092364;28;20052;-93
2021/09/16 06:18:05;;;;;;;18.42;10.02;;;;;;;20.66;56.32;99036.50;5093577;28;20428;-93
2021/09/16 06:20:31;;;;;;;27.88;21.83;;;;;;;20.62;55.24;99025.00;5093935;28;20040;-95
2021/09/16 06:22:59;;;;;;;17.00;11.43;;;;;;;20.61;54.47;99017.00;5097313;28;20017;-94
2021/09/16 06:25:28;;;;;;;13.90;10.43;;;;;;;20.70;54.77;99021.81;5083431;28;20047;-94
2021/09/16 06:27:54;;;;;;;15.27;10.23;;;;;;;20.80;55.06;99027.50;5077868;28;20581;-93
2021/09/16 06:30:20;;;;;;;14.77;10.30;;;;;;;20.90;54.48;99026.78;5077379;28;20131;-93
2021/09/16 06:32:47;;;;;;;17.95;11.48;;;;;;;20.98;54.88;99028.13;5078280;28;20059;-93
2021/09/16 06:35:13;;;;;;;17.20;10.75;;;;;;;21.07;54.92;99025.69;5077111;28;20378;-93
2021/09/16 06:37:40;;;;;;;16.08;9.63;;;;;;;21.24;54.82;99038.09;5076233;28;20063;-93
2021/09/16 06:40:09;;;;;;;19.10;10.38;;;;;;;21.32;54.74;99045.69;5076247;28;20036;-93
2021/09/16 06:42:35;;;;;;;17.33;11.80;;;;;;;21.31;54.22;99043.94;5076062;28;20048;-92
2021/09/16 06:45:02;;;;;;;16.25;10.15;;;;;;;21.43;54.68;99032.34;5075563;28;20043;-91
2021/09/16 06:47:28;;;;;;;15.20;10.70;;;;;;;21.65;54.54;99033.59;5076417;28;20071;-94
2021/09/16 06:49:54;;;;;;;14.15;9.63;;;;;;;21.73;54.48;99026.69;5076164;28;20105;-95
2021/09/16 06:52:22;;;;;;;16.13;10.63;;;;;;;21.78;53.79;99031.78;5076854;28;20047;-94
2021/09/16 06:54:48;;;;;;;19.40;11.00;;;;;;;21.81;54.11;99033.41;5076912;28;20033;-93
2021/09/16 06:57:16;;;;;;;19.73;10.52;;;;;;;21.87;53.90;99016.72;5075882;28;20047;-94
2021/09/16 06:59:42;;;;;;;17.50;10.90;;;;;;;22.08;54.01;99033.34;5078348;28;20045;-94
2021/09/16 07:02:08;;;;;;;17.15;10.15;;;;;;;22.20;53.84;99024.31;5076183;28;20041;-91
2021/09/16 07:04:34;;;;;;;15.50;10.05;;;;;;;22.40;53.69;99022.91;5075540;28;20067;-94
2021/09/16 07:07:04;;;;;;;16.98;10.55;;;;;;;22.55;53.12;99015.53;5075215;28;20071;-92
2021/09/16 07:09:30;;;;;;;13.80;10.20;;;;;;;22.75;52.91;99031.22;5073212;28;20037;-92
2021/09/16 07:11:56;;;;;;;17.40;10.32;;;;;;;22.71;53.28;99015.31;5075215;28;20082;-91
2021/09/16 07:14:25;;;;;;;17.25;10.68;;;;;;;22.85;53.38;99049.53;5073702;28;20048;-95
2021/09/16 07:16:51;;;;;;;16.35;10.00;;;;;;;22.96;52.99;99025.19;5075457;28;20101;-91
2021/09/16 07:19:17;;;;;;;16.35;10.77;;;;;;;23.11;52.39;99025.94;5075008;28;20033;-94
2021/09/16 07:21:43;;;;;;;18.60;11.18;;;;;;;23.00;52.74;99015.00;5074801;28;20068;-92
2021/09/16 07:24:09;;;;;;;21.35;11.68;;;;;;;23.17;53.02;99018.19;5075009;28;20043;-93
2021/09/16 07:26:39;;;;;;;18.45;10.27;;;;;;;23.23;52.38;99029.59;5075850;28;20041;-93
2021/09/16 07:29:05;;;;;;;21.63;11.27;;;;;;;23.17;52.86;99029.06;5074129;28;20043;-92
2021/09/16 07:31:32;;;;;;;19.08;10.93;;;;;;;23.27;52.92;99018.38;5073871;28;20037;-94
2021/09/16 07:33:58;;;;;;;21.27;11.07;;;;;;;23.41;52.80;99009.19;5071336;28;20051;-93
2021/09/16 07:36:25;;;;;;;17.08;10.95;;;;;;;23.12;53.27;99006.84;5073663;28;20127;-92
2021/09/16 07:38:51;;;;;;;14.25;10.38;;;;;;;23.27;53.59;99002.09;5074384;28;20098;-93
2021/09/16 07:41:17;;;;;;;17.30;11.40;;;;;;;23.25;53.68;99008.59;5074360;28;20045;-93
2021/09/16 07:43:43;;;;;;;24.38;11.30;;;;;;;23.45;54.76;99005.25;5075082;28;20379;-93
2021/09/16 07:46:09;;;;;;;15.85;10.38;;;;;;;23.63;53.83;99002.13;5072850;28;20049;-92
2021/09/16 07:48:37;;;;;;;20.35;11.18;;;;;;;23.71;53.63;99010.53;5074781;28;20068;-94
2021/09/16 07:51:03;;;;;;;17.45;10.68;;;;;;;23.26;55.06;98999.50;5074821;28;20044;-92
2021/09/16 07:53:30;;;;;;;16.83;11.20;;;;;;;23.54;54.60;99009.13;5074856;28;20127;-91
2021/09/16 07:55:56;;;;;;;18.92;10.90;;;;;;;23.82;53.91;99007.88;5074590;28;20043;-94
2021/09/16 07:58:22;;;;;;;18.77;11.30;;;;;;;24.17;52.92;99013.25;5074826;28;20040;-92
2021/09/16 08:00:51;;;;;;;16.27;10.77;;;;;;;24.48;52.16;99010.81;5072599;28;20511;-94
2021/09/16 08:03:18;;;;;;;19.92;10.13;;;;;;;24.76;51.24;99005.84;5074220;28;20060;-93
2021/09/16 08:05:46;;;;;;;23.13;11.15;;;;;;;24.91;50.57;99001.88;5074157;28;20044;-93
2021/09/16 08:08:12;;;;;;;20.27;10.25;;;;;;;25.04;50.56;99000.88;5073872;28;20131;-91
2021/09/16 08:10:38;;;;;;;15.25;10.70;;;;;;;25.21;50.33;99009.38;5074228;28;20094;-92
2021/09/16 08:13:04;;;;;;;17.83;10.13;;;;;;;25.09;50.28;99010.38;5073988;28;20072;-92
2021/09/16 08:15:30;;;;;;;17.48;10.85;;;;;;;25.24;50.59;99024.56;5072629;28;20083;-92
2021/09/16 08:17:58;;;;;;;17.10;10.77;;;;;;;25.36;50.09;99019.97;5074429;28;20037;-93
2021/09/16 08:20:25;;;;;;;17.35;9.75;;;;;;;25.18;50.43;99025.09;5074231;28;20114;-92
2021/09/16 08:22:53;;;;;;;16.95;10.07;;;;;;;25.20;50.54;99010.38;5073900;28;20044;-92
2021/09/16 08:25:19;;;;;;;15.52;11.02;;;;;;;25.15;50.91;99011.72;5073904;28;20490;-91
2021/09/16 08:27:45;;;;;;;22.15;19.35;;;;;;;25.05;50.74;99017.06;5074235;28;20040;-93
2021/09/16 08:30:12;;;;;;;28.30;22.80;;;;;;;24.60;51.66;99017.13;5072372;28;20040;-93
2021/09/16 08:32:39;;;;;;;24.58;16.38;;;;;;;24.32;52.38;99005.72;5073799;28;20041;-92
2021/09/16 08:35:07;;;;;;;62.38;31.75;;;;;;;24.34;53.22;99014.63;5073642;28;20123;-92
2021/09/16 08:37:33;;;;;;;21.88;12.80;;;;;;;24.23;53.36;99011.91;5073973;28;20047;-94
2021/09/16 08:40:01;;;;;;;19.80;10.38;;;;;;;24.42;52.82;99022.19;5074043;28;20044;-91
2021/09/16 08:42:27;;;;;;;14.88;10.40;;;;;;;24.23;52.06;99008.34;5073737;28;20434;-91
2021/09/16 08:44:55;;;;;;;13.05;9.25;;;;;;;24.47;52.06;99013.66;5073614;28;20136;-92
2021/09/16 08:47:24;;;;;;;14.93;9.80;;;;;;;24.60;51.18;99033.44;5070876;28;20044;-91
2021/09/16 08:49:50;;;;;;;14.68;9.18;;;;;;;24.84;50.95;99033.31;5073863;28;20051;-94
2021/09/16 08:52:16;;;;;;;14.20;9.38;;;;;;;25.01;49.45;99023.75;5073289;28;20443;-93
2021/09/16 08:54:43;;;;;;;13.45;8.73;;;;;;;25.11;49.42;99024.72;5073830;28;20052;-93
2021/09/16 08:57:15;;;;;;;13.45;9.45;;;;;;;25.21;49.83;99020.25;5074244;28;20382;-91
2021/09/16 08:59:42;;;;;;;13.80;9.20;;;;;;;25.30;49.44;99025.94;5072054;28;20131;-92
2021/09/16 09:02:08;;;;;;;13.93;9.43;;;;;;;25.49;49.19;99033.41;5072321;28;21327;-94
2021/09/16 09:04:34;;;;;;;14.85;8.95;;;;;;;25.59;47.62;99034.34;5074817;28;20096;-93
2021/09/16 09:07:02;;;;;;;12.48;8.25;;;;;;;25.97;46.48;99043.88;5074527;28;20127;-95
2021/09/16 09:09:28;;;;;;;13.43;8.55;;;;;;;26.28;45.67;99030.28;5075035;28;20405;-88
2021/09/16 09:11:57;;;;;;;15.88;8.13;;;;;;;26.68;44.80;99045.88;5075658;28;20040;-93
2021/09/16 09:14:27;;;;;;;10.98;7.70;;;;;;;26.96;43.71;99036.94;5075055;28;20455;-94
2021/09/16 09:16:54;;;;;;;13.25;8.10;;;;;;;26.51;44.02;99066.44;5074771;28;20040;-93
2021/09/16 09:19:24;;;;;;;11.88;8.23;;;;;;;26.30;44.37;99069.19;5075060;28;20056;-92
2021/09/16 09:21:50;;;;;;;10.40;7.45;;;;;;;26.02;44.96;99061.56;5074904;28;20036;-93
2021/09/16 09:24:32;;;;;;;11.75;7.57;;;;;;;26.22;44.35;99058.97;5074561;28;20044;-92
2021/09/16 09:26:58;;;;;;;10.77;7.88;;;;;;;26.30;44.80;99050.09;5074658;28;20041;-94
2021/09/16 09:29:26;;;;;;;10.95;7.93;;;;;;;26.35;45.22;99078.69;5074693;28;20091;-94
2021/09/16 09:31:55;;;;;;;13.47;8.17;;;;;;;26.22;45.75;99064.41;5072816;28;20037;-93
2021/09/16 09:34:23;;;;;;;25.50;8.75;;;;;;;26.08;46.17;99075.63;5074501;28;20094;-93
2021/09/16 09:36:50;;;;;;;10.17;7.57;;;;;;;26.03;46.08;99063.28;5072903;28;20086;-94
2021/09/16 09:39:25;;;;;;;11.77;7.65;;;;;;;26.13;46.47;99076.09;5073542;28;20277;-96
2021/09/16 09:41:52;;;;;;;10.93;8.13;;;;;;;25.96;46.51;99047.59;5073535;28;20116;-95
2021/09/16 09:44:18;;;;;;;11.50;8.13;;;;;;;26.02;46.74;99047.94;5075147;28;20390;-94
2021/09/16 09:46:49;;;;;;;12.45;8.23;;;;;;;26.02;46.81;99042.47;5073926;28;20041;-93
2021/09/16 09:49:17;;;;;;;20.42;8.55;;;;;;;26.11;46.71;99053.56;5069594;28;20044;-94
2021/09/16 09:51:47;;;;;;;12.93;8.57;;;;;;;26.04;46.64;99034.16;5074241;28;20042;-94
2021/09/16 09:54:22;;;;;;;13.35;7.97;;;;;;;26.11;46.34;99010.84;5074446;28;20037;-96
2021/09/16 09:56:59;;;;;;;13.43;7.93;;;;;;;26.01;42.92;99018.94;5074650;28;20059;-95
2021/09/16 09:59:26;;;;;;;8.55;5.78;;;;;;;25.78;38.97;99001.81;5077070;28;20429;-95
2021/09/16 10:02:03;;;;;;;12.45;6.43;;;;;;;26.06;39.73;99012.22;5077404;28;20055;-94
2021/09/16 10:04:30;;;;;;;10.50;6.28;;;;;;;26.25;39.39;99022.38;5078058;28;20037;-93
2021/09/16 10:06:57;;;;;;;19.25;10.32;;;;;;;26.27;39.83;99007.63;5076112;28;20071;-94
2021/09/16 10:09:23;;;;;;;32.20;12.80;;;;;;;26.43;39.41;99028.91;5078200;28;20080;-93
2021/09/16 10:11:51;;;;;;;40.70;17.10;;;;;;;26.38;40.76;99034.78;5077756;28;20037;-94
2021/09/16 10:14:17;;;;;;;16.88;8.60;;;;;;;26.28;40.91;99027.56;5078156;28;20401;-91
2021/09/16 10:16:44;;;;;;;18.90;9.65;;;;;;;25.88;41.75;99015.56;5076140;28;20056;-95
2021/09/16 10:19:14;;;;;;;17.52;8.27;;;;;;;25.77;42.77;99015.59;5078031;28;20040;-94
2021/09/16 10:21:40;;;;;;;12.57;6.68;;;;;;;25.66;43.45;99015.66;5078398;28;20070;-93
2021/09/16 10:24:13;;;;;;;18.77;10.30;;;;;;;25.55;43.90;99028.31;5077110;28;20028;-93
2021/09/16 10:26:41;;;;;;;14.15;7.95;;;;;;;25.39;44.49;99045.09;5075608;28;20110;-93
2021/09/16 10:29:37;;;;;;;11.73;7.07;;;;;;;25.02;44.91;99060.84;5077939;28;20067;-94
2021/09/16 10:32:34;;;;;;;8.68;6.63;;;;;;;24.95;45.84;99059.63;5073454;28;20558;-92
2021/09/16 10:35:16;;;;;;;13.48;7.68;;;;;;;24.91;45.56;99059.00;5076527;28;20173;-93
2021/09/16 10:37:42;;;;;;;13.10;7.13;;;;;;;24.97;45.15;99046.75;5075840;28;20406;-94
2021/09/16 10:40:29;;;;;;;9.13;6.68;;;;;;;25.14;45.25;99012.72;5076283;28;20028;-95
2021/09/16 10:42:58;;;;;;;15.60;7.80;;;;;;;25.37;44.24;98950.91;5072701;28;20584;-95
2021/09/16 10:45:28;;;;;;;;;;;;;;;25.69;43.68;98934.53;5077321;28;20281;-94
2021/09/16 10:48:29;;;;;;;10.50;7.10;;;;;;;25.82;42.90;98920.69;5077656;28;19916;-95
2021/09/16 10:51:01;;;;;;;11.40;7.07;;;;;;;25.95;43.14;98942.31;5077538;28;20044;-94
2021/09/16 10:56:39;;;;;;;13.05;7.60;;;;;;;26.14;43.25;98945.13;5093217;27;20389;-94
2021/09/16 10:59:06;;;;;;;12.00;8.13;;;;;;;26.19;43.42;98936.56;5092573;28;20044;-94
2021/09/16 11:01:58;;;;;;;12.57;7.25;;;;;;;26.30;43.50;98946.50;5091920;28;20041;-94
2021/09/16 11:04:26;;;;;;;13.45;7.72;;;;;;;26.40;43.22;98918.28;5092074;28;20068;-95
2021/09/16 11:06:52;;;;;;;13.90;7.70;;;;;;;26.41;42.71;98916.41;5091931;28;20051;-94
2021/09/16 11:09:28;;;;;;;10.63;7.47;;;;;;;26.42;42.99;98931.78;5091316;28;20355;-94
2021/09/16 11:11:58;;;;;;;10.65;6.93;;;;;;;26.38;42.51;98923.00;5091021;28;20039;-95
2021/09/16 11:14:27;;;;;;;12.73;6.93;;;;;;;26.71;42.06;98918.22;5091389;28;20056;-93
2021/09/16 11:16:54;;;;;;;10.70;7.35;;;;;;;26.97;41.63;98907.63;5090526;28;20048;-94
2021/09/16 11:19:20;;;;;;;11.30;6.90;;;;;;;27.15;41.33;98910.53;5090774;28;20040;-93
2021/09/16 11:22:01;;;;;;;12.57;6.95;;;;;;;27.43;40.64;98907.94;5090969;28;20489;-93
2021/09/16 11:24:37;;;;;;;9.43;6.90;;;;;;;27.54;39.84;98921.47;5090179;28;20055;-94
2021/09/16 11:27:05;;;;;;;11.13;7.00;;;;;;;27.43;38.31;98900.66;5089664;28;20040;-93
2021/09/16 11:29:40;;;;;;;10.43;7.10;;;;;;;27.55;37.75;98909.53;5090568;28;20044;-94